Annville, KY

12:03 PM EDT on October 22, 2014 (GMT -0400)
Southern McKee | Change Station
CLOSE
Current Station
Personal Weather Station
Location: McKee, KY
Elevation: 1138 ft
Nearby Weather Stations

Elev 1138 ft 37.36 °N, 83.94 °W | Updated 12 seconds ago

Overcast
Overcast
46.7 °F
Feels Like 47 °F
N
0.0
Wind Variable Wind from NW
Gusts 0.0 mph

Today
High -- | Low -- °F
--% Chance of Precip.
Yesterday
High -- | Low -- °F
Precip. -- in
7:50 AM 6:49 PM
Waning Crescent, 2% visible
Pressure 30.28 in
Visibility 10.0 miles
Clouds Overcast 1500 ft
Windchill 47 °F
Dew Point 42 °F
Humidity 84%
Rainfall 0.00 in
Snow Depth Not available.
UV 1 out of 12
Pollen 1.00 out of 12
Air Quality Not available.
Flu Activity Sporadic
METAR KLOZ 221553Z AUTO 04006KT 10SM OVC015 09/04 A3027 RMK AO2 SLP252 T00890039

More Conditions Fewer Conditions

Pressure 30.28 in
Visibility 10.0 miles
Clouds Overcast 1500 ft
Windchill 47 °F
Dew Point 42 °F
Humidity 84%
Rainfall 0.00 in
Snow Depth Not available.
UV 1 out of 12
Pollen 1.00 out of 12
Air Quality Not available.
Flu Activity Sporadic
METAR KLOZ 221553Z AUTO 04006KT 10SM OVC015 09/04 A3027 RMK AO2 SLP252 T00890039

More Conditions Fewer Conditions

10-Day Weather Forecast

Almanac

Astronomy

Oct. 22, 2014 Rise Set
Actual Time 7:50 AM EDT 6:49 PM EDT
Civil Twilight 7:23 AM EDT 7:16 PM EDT
Nautical Twilight 6:53 AM EDT 7:46 PM EDT
Astronomical Twilight 6:23 AM EDT 8:16 PM EDT
Moon 6:32 AM EDT 6:14 PM EDT
Length of Visible Light 11h 52m
Length of Day
10h 59m
Tomorrow will be 2m 14s shorter.
Waning Crescent, 2% of the Moon is Illuminated
Today
Waning Crescent
Oct 23
New
Oct 30
First Quarter
Nov 6
Full
Nov 14
Last Quarter

Today's Extremes

State Highs State Lows

Community

WunderPhotos

Upload Photos

1,763,956 photos uploaded!

Nearby

Snow Depth

Station Depth Elevation
No new snow has been reported.

Earthquake Activity

City Distance Mag. Time & Date
No recent earthquake activity has been reported nearby.
Minimum magnitude displayed is 2.5.

Coastal Water Temperatures

Place Temperature
No Stations Reporting

Nearby Weather Stations